Terminal Aerodrome Forecast
Issued by NWS

Current Version | Previous Version | Graphics & Text | Print | Product List | Glossary On
Versions: 1 2 3 4 5 6 7 8 9 10 11 12 13 14 15 16 17 18 19 20 21 22 23 24 25 26 27 28
149
FTUS41 KILN 271346 AAA
TAFLUK
TAF AMD
KLUK 271346Z 2714/2812 23005KT P6SM VCSH SCT050 OVC120
     FM271900 24007KT P6SM VCTS OVC060CB
     FM272300 25004KT 5SM -SHRA BR OVC040
     FM280400 26003KT P6SM VCSH OVC045
     FM280600 24003KT P6SM OVC040
     FM280800 VRB02KT P6SM OVC009=

USA.gov is the U.S. government's official web portal to all federal, state and local government web resources and services.